Time;durP1;ratioP1;P1;durP2;ratioP2;P2;SDS_P1;SDS_P2;PMS_P1;PMS_P2;Temp;Humidity;BMP_temperature;BMP_pressure;BME280_temperature;BME280_humidity;BME280_pressure;Samples;Min_cycle;Max_cycle;Signal;HPM_P1;HPM_P2
2022/07/30 00:01:00;;;;;;;;;5.25;5.00;;;;;27.48;31.94;101275.50;2116741;27;47362;-65
2022/07/30 00:02:00;;;;;;;;;3.00;3.00;;;;;27.47;31.02;101277.34;2108598;27;46022;-62
2022/07/30 00:03:00;;;;;;;;;4.25;4.25;;;;;27.46;31.58;101282.94;2110507;27;47797;-66
2022/07/30 00:04:01;;;;;;;;;5.00;5.00;;;;;27.46;31.84;101280.22;2117919;27;47328;-66
2022/07/30 00:05:03;;;;;;;;;5.25;4.75;;;;;27.45;31.42;101282.06;2108616;27;47571;-67
2022/07/30 00:06:04;;;;;;;;;5.20;4.60;;;;;27.44;31.58;101282.19;2111789;27;48472;-68
2022/07/30 00:07:04;;;;;;;;;4.50;4.50;;;;;27.44;31.79;101282.19;2115884;27;47347;-66
2022/07/30 00:08:04;;;;;;;;;4.50;3.50;;;;;27.44;32.30;101284.91;2112968;27;47812;-66
2022/07/30 00:09:05;;;;;;;;;8.00;6.75;;;;;27.43;31.99;101284.03;2111937;27;45775;-65
2022/07/30 00:10:06;;;;;;;;;4.25;4.25;;;;;27.42;32.02;101279.56;2104849;27;47425;-67
2022/07/30 00:11:06;;;;;;;;;5.00;5.00;;;;;27.42;32.29;101289.63;2091439;28;47557;-67
2022/07/30 00:12:07;;;;;;;;;6.75;5.75;;;;;27.40;32.08;101287.03;2102195;27;47595;-66
2022/07/30 00:13:08;;;;;;;;;2.60;2.60;;;;;27.39;31.94;101287.16;2118213;27;47570;-65
2022/07/30 00:14:08;;;;;;;;;5.00;5.00;;;;;27.39;32.01;101290.75;2120263;27;47723;-64
2022/07/30 00:15:09;;;;;;;;;4.00;4.00;;;;;27.38;31.88;101290.88;2110295;27;47701;-63
2022/07/30 00:16:10;;;;;;;;;4.00;4.00;;;;;27.37;31.87;101290.00;2109299;27;47503;-65
2022/07/30 00:17:11;;;;;;;;;4.00;4.00;;;;;27.36;32.35;101285.56;2106677;27;48161;-66
2022/07/30 00:18:12;;;;;;;;;6.00;4.50;;;;;27.36;32.14;101290.16;2112620;27;47371;-67
2022/07/30 00:19:12;;;;;;;;;3.75;3.75;;;;;27.36;32.51;101285.56;2120682;27;47129;-65
2022/07/30 00:20:13;;;;;;;;;6.50;4.75;;;;;27.34;32.17;101287.56;2117023;27;47830;-63
2022/07/30 00:21:13;;;;;;;;;4.75;4.75;;;;;27.33;32.01;101282.22;2118101;27;47467;-66
2022/07/30 00:22:14;;;;;;;;;4.00;4.00;;;;;27.32;32.48;101284.09;2117378;27;47794;-64
2022/07/30 00:23:14;;;;;;;;;4.00;4.00;;;;;27.30;32.28;101280.59;2118501;27;47531;-65
2022/07/30 00:24:15;;;;;;;;;5.00;5.00;;;;;27.30;31.63;101286.06;2110565;27;47159;-63
2022/07/30 00:25:17;;;;;;;;;3.25;3.25;;;;;27.28;32.24;101278.00;2110316;27;47590;-62
2022/07/30 00:26:18;;;;;;;;;4.00;4.00;;;;;27.27;32.43;101284.44;2120049;27;47523;-65
2022/07/30 00:27:18;;;;;;;;;5.00;5.00;;;;;27.25;32.37;101272.81;2119894;27;47488;-65
2022/07/30 00:28:19;;;;;;;;;4.75;3.75;;;;;27.24;31.93;101275.69;2121471;27;47311;-60
2022/07/30 00:29:19;;;;;;;;;6.25;5.00;;;;;27.23;32.25;101274.81;2119608;27;47380;-64
2022/07/30 00:30:20;;;;;;;;;5.00;5.00;;;;;27.23;32.11;101273.94;2121249;27;47318;-65
2022/07/30 00:31:20;;;;;;;;;6.50;6.50;;;;;27.23;32.56;101282.13;2121510;27;47644;-67
2022/07/30 00:32:21;;;;;;;;;6.25;6.25;;;;;27.22;32.72;101272.22;2121197;27;47054;-64
2022/07/30 00:33:21;;;;;;;;;4.00;4.00;;;;;27.21;32.27;101273.22;2120133;27;47381;-63
2022/07/30 00:34:21;;;;;;;;;3.75;3.75;;;;;27.20;32.69;101279.66;2120524;27;47718;-66
2022/07/30 00:35:22;;;;;;;;;5.00;4.00;;;;;27.18;32.50;101273.44;2101112;28;47322;-66
2022/07/30 00:36:22;;;;;;;;;7.50;4.75;;;;;27.17;32.16;101271.72;2099348;28;48157;-67
2022/07/30 00:37:23;;;;;;;;;5.00;5.00;;;;;27.16;32.77;101276.28;2125357;27;47669;-67
2022/07/30 00:38:23;;;;;;;;;6.00;6.00;;;;;27.15;32.50;101277.28;2119180;27;47254;-67
2022/07/30 00:39:24;;;;;;;;;4.00;4.00;;;;;27.15;32.47;101273.69;2117312;27;47006;-64
2022/07/30 00:40:24;;;;;;;;;3.50;3.00;;;;;27.14;32.48;101275.56;2111563;27;47194;-66
2022/07/30 00:41:25;;;;;;;;;5.75;5.75;;;;;27.13;32.34;101270.25;2111293;27;48219;-65
2022/07/30 00:42:36;;;;;;;;;6.25;5.00;;;;;27.13;32.83;101272.97;2121516;27;47632;-65
2022/07/30 00:43:37;;;;;;;;;5.00;5.00;;;;;27.11;32.78;101273.09;2118161;27;47969;-64
2022/07/30 00:44:37;;;;;;;;;5.50;5.25;;;;;27.12;33.05;101277.56;2121432;27;46998;-65
2022/07/30 00:45:37;;;;;;;;;5.50;5.50;;;;;27.11;32.31;101275.81;2122674;27;47494;-65
2022/07/30 00:46:39;;;;;;;;;5.00;5.00;;;;;27.11;32.97;101274.97;2116155;27;47324;-66
2022/07/30 00:47:39;;;;;;;;;7.60;7.60;;;;;27.10;33.23;101271.38;2118373;27;47582;-65
2022/07/30 00:48:40;;;;;;;;;8.00;8.00;;;;;27.10;32.90;101275.97;2121028;27;47229;-66
2022/07/30 00:49:41;;;;;;;;;6.60;5.60;;;;;27.09;32.46;101272.38;2123141;27;47537;-66
2022/07/30 00:50:41;;;;;;;;;7.75;7.75;;;;;27.07;32.52;101268.03;2112884;27;48211;-67
2022/07/30 00:51:42;;;;;;;;;7.75;6.50;;;;;27.06;32.77;101267.19;2118503;27;47659;-62
2022/07/30 00:52:43;;;;;;;;;5.50;5.50;;;;;27.06;32.84;101264.44;2119681;27;48035;-63
2022/07/30 00:53:43;;;;;;;;;7.00;7.00;;;;;27.05;32.54;101270.00;2120344;27;47973;-67
2022/07/30 00:54:43;;;;;;;;;9.25;8.00;;;;;27.03;33.33;101261.09;2116802;27;48026;-65
2022/07/30 00:55:44;;;;;;;;;7.25;6.25;;;;;27.03;33.01;101261.09;2118929;27;47547;-65
2022/07/30 00:56:44;;;;;;;;;9.00;7.00;;;;;27.01;32.74;101265.78;2120653;27;47562;-67
2022/07/30 00:57:45;;;;;;;;;8.25;7.25;;;;;26.99;33.12;101268.63;2096722;28;47619;-64
2022/07/30 00:58:45;;;;;;;;;7.25;7.25;;;;;26.97;32.94;101260.59;2103178;28;47683;-67
2022/07/30 00:59:45;;;;;;;;;8.50;8.50;;;;;26.96;32.94;101263.44;2122365;27;47603;-65
2022/07/30 01:00:46;;;;;;;;;7.75;7.75;;;;;26.95;32.94;101261.72;2101006;28;47608;-64
2022/07/30 01:01:46;;;;;;;;;7.25;7.25;;;;;26.94;32.99;101263.56;2102819;27;47962;-59
2022/07/30 01:02:46;;;;;;;;;8.00;8.00;;;;;26.92;33.38;101262.78;2114219;27;47843;-67
2022/07/30 01:03:47;;;;;;;;;6.00;6.00;;;;;26.91;32.93;101266.50;2121112;27;47899;-62
2022/07/30 01:04:47;;;;;;;;;7.50;7.50;;;;;26.91;32.93;101262.94;2118905;27;47992;-67
2022/07/30 01:05:48;;;;;;;;;8.50;8.50;;;;;26.91;33.76;101260.19;2121790;27;47397;-62
2022/07/30 01:06:49;;;;;;;;;11.00;11.00;;;;;26.90;33.76;101267.50;2117865;27;47244;-63
2022/07/30 01:07:50;;;;;;;;;9.00;9.00;;;;;26.89;33.64;101268.50;2114399;27;47058;-68
2022/07/30 01:08:50;;;;;;;;;6.80;6.80;;;;;26.87;33.50;101267.75;2121064;27;47642;-65
2022/07/30 01:09:51;;;;;;;;;10.50;10.50;;;;;26.87;33.71;101266.91;2121683;27;47305;-66
2022/07/30 01:10:51;;;;;;;;;10.50;9.75;;;;;26.85;33.47;101266.16;2113614;27;47383;-67
2022/07/30 01:11:52;;;;;;;;;12.50;11.75;;;;;26.83;33.77;101269.00;2121882;27;47396;-65
2022/07/30 01:12:53;;;;;;;;;9.75;8.75;;;;;26.83;33.77;101258.13;2118770;27;47743;-66
2022/07/30 01:13:53;;;;;;;;;6.60;6.60;;;;;26.84;33.59;101269.88;2121062;27;47978;-66
2022/07/30 01:14:59;;;;;;;;;8.25;8.25;;;;;26.83;33.63;101270.88;2119709;27;47231;-65
2022/07/30 01:15:59;;;;;;;;;9.60;9.20;;;;;26.84;33.23;101267.16;2121729;27;47903;-64
2022/07/30 01:17:00;;;;;;;;;8.75;8.75;;;;;26.83;33.53;101270.88;2118690;27;47623;-65
2022/07/30 01:18:02;;;;;;;;;9.50;9.50;;;;;26.81;33.22;101271.00;2121611;27;47384;-66
2022/07/30 01:20:43;;;;;;;;;8.60;8.60;;;;;26.80;33.97;101263.78;2120984;27;47615;-65
2022/07/30 01:21:49;;;;;;;;;7.60;7.40;;;;;26.79;33.45;101264.78;2116711;27;47278;-67
2022/07/30 01:23:14;;;;;;;;;9.60;9.60;;;;;26.78;34.11;101259.47;2100825;28;47195;-62
2022/07/30 01:24:29;;;;;;;;;8.60;8.60;;;;;26.76;34.06;101256.88;2105719;27;47709;-64
2022/07/30 01:25:32;;;;;;;;;6.60;6.60;;;;;26.75;34.14;101260.59;2101947;27;46370;-66
2022/07/30 01:26:33;;;;;;;;;8.20;8.20;;;;;26.74;34.27;101261.59;2099940;27;47605;-66
2022/07/30 01:28:05;;;;;;;;;9.50;8.00;;;;;26.73;33.65;101253.53;2104342;28;47500;-67
2022/07/30 01:29:08;;;;;;;;;6.80;6.20;;;;;26.71;33.65;101253.66;2101179;28;47784;-65
2022/07/30 01:30:09;;;;;;;;;8.40;8.40;;;;;26.71;34.23;101260.97;2101763;27;47940;-66
2022/07/30 01:31:12;;;;;;;;;7.00;7.00;;;;;26.69;33.79;101252.94;2102869;27;47272;-63
2022/07/30 01:32:15;;;;;;;;;7.00;7.00;;;;;26.68;34.34;101259.38;2103779;27;47338;-63
2022/07/30 01:33:18;;;;;;;;;6.40;6.40;;;;;26.66;34.38;101253.16;2104454;28;47326;-64
2022/07/30 01:34:20;;;;;;;;;6.00;6.00;;;;;26.67;34.13;101260.34;2086584;28;47402;-64
2022/07/30 01:35:23;;;;;;;;;6.80;6.20;;;;;26.65;33.77;101259.59;2088947;28;47884;-64
2022/07/30 01:36:24;;;;;;;;;8.00;7.60;;;;;26.64;33.95;101253.28;2103495;28;47035;-65
2022/07/30 01:37:26;;;;;;;;;6.00;5.00;;;;;26.63;34.26;101254.28;2104831;28;47722;-66
2022/07/30 01:38:29;;;;;;;;;9.40;9.20;;;;;26.62;33.95;101252.53;2099902;27;47556;-62
2022/07/30 01:39:31;;;;;;;;;6.00;6.00;;;;;26.60;34.06;101259.97;2104434;28;47903;-66
2022/07/30 01:40:33;;;;;;;;;8.60;6.60;;;;;26.58;34.60;101256.53;2102551;28;48083;-64
2022/07/30 01:41:35;;;;;;;;;9.40;9.40;;;;;26.56;34.35;101255.78;2103598;28;47606;-62
2022/07/30 01:42:38;;;;;;;;;5.00;5.00;;;;;26.56;34.29;101250.34;2098560;27;47496;-66
2022/07/30 01:43:41;;;;;;;;;6.00;6.00;;;;;26.56;34.71;101252.19;2105055;28;47476;-65
2022/07/30 01:44:42;;;;;;;;;7.20;7.20;;;;;26.55;34.65;101256.78;2103633;27;46684;-64
2022/07/30 01:45:45;;;;;;;;;8.00;8.00;;;;;26.55;34.18;101256.78;2104866;28;47559;-66
2022/07/30 01:46:47;;;;;;;;;9.60;9.00;;;;;26.55;34.87;101259.50;2099312;27;47483;-66
2022/07/30 01:47:50;;;;;;;;;6.00;6.00;;;;;26.56;34.29;101255.78;2104471;28;47540;-63
2022/07/30 01:48:53;;;;;;;;;6.00;6.00;;;;;26.55;34.71;101261.31;2103605;28;47894;-64
2022/07/30 01:49:56;;;;;;;;;7.00;7.00;;;;;26.54;34.47;101263.19;2102821;27;48312;-66
2022/07/30 01:50:59;;;;;;;;;6.00;6.00;;;;;26.54;34.35;101265.03;2095379;28;47193;-66
2022/07/30 01:52:02;;;;;;;;;6.80;6.00;;;;;26.54;34.43;101259.59;2095947;28;45889;-65
2022/07/30 01:53:04;;;;;;;;;6.40;6.40;;;;;26.53;34.22;101263.31;2096808;28;47557;-64
2022/07/30 01:54:08;;;;;;;;;6.80;6.00;;;;;26.53;34.30;101271.47;2099511;28;47310;-65
2022/07/30 01:55:13;;;;;;;;;7.40;7.40;;;;;26.52;35.00;101267.00;2095508;28;47461;-64
2022/07/30 01:56:14;;;;;;;;;7.20;7.00;;;;;26.51;34.96;101266.16;2090741;28;47647;-66
2022/07/30 01:57:19;;;;;;;;;6.80;6.80;;;;;26.52;34.83;101267.00;2113926;27;47478;-66
2022/07/30 01:58:23;;;;;;;;;7.40;6.00;;;;;26.51;34.87;101268.00;2112573;27;47333;-65
2022/07/30 01:59:27;;;;;;;;;7.20;7.20;;;;;26.51;34.51;101271.59;2112444;27;47559;-63
2022/07/30 02:00:32;;;;;;;;;7.00;7.00;;;;;26.52;34.81;101272.47;2119473;27;47264;-66
2022/07/30 02:01:32;;;;;;;;;7.00;7.00;;;;;26.50;35.00;101267.13;2121953;27;47851;-67
2022/07/30 02:02:37;;;;;;;;;7.00;7.00;;;;;26.50;34.62;101278.03;2119803;27;47050;-64
2022/07/30 02:03:38;;;;;;;;;8.20;8.20;;;;;26.51;35.25;101268.88;2119872;27;47593;-66
2022/07/30 02:04:38;;;;;;;;;5.80;5.80;;;;;26.50;34.98;101275.31;2118847;27;47830;-64
2022/07/30 02:05:41;;;;;;;;;7.50;6.25;;;;;26.50;34.52;101269.00;2113668;27;47286;-64
2022/07/30 02:06:58;;;;;;;;;5.00;5.00;;;;;26.51;35.25;101265.28;2116890;27;47646;-63
2022/07/30 02:08:46;;;;;;;;;6.40;5.40;;;;;26.49;35.12;101264.53;2115319;27;47310;-66
2022/07/30 02:09:54;;;;;;;;;3.20;3.20;;;;;26.46;34.91;101265.66;2090950;28;47954;-63
2022/07/30 02:11:06;;;;;;;;;5.00;5.00;;;;;26.46;34.52;101256.63;2090803;28;47632;-66
2022/07/30 02:12:28;;;;;;;;;6.40;6.40;;;;;26.45;34.94;101257.63;2083800;28;47754;-66
2022/07/30 02:13:29;;;;;;;;;8.00;8.00;;;;;26.44;35.40;101255.91;2090337;28;47502;-67
2022/07/30 02:14:56;;;;;;;;;5.60;5.60;;;;;26.43;34.63;101260.47;2090802;28;47805;-66
2022/07/30 02:16:04;;;;;;;;;4.60;4.60;;;;;26.40;34.78;101257.97;2085929;28;47487;-65
2022/07/30 02:17:07;;;;;;;;;6.40;5.60;;;;;26.40;35.15;101260.69;2082262;28;47497;-65
2022/07/30 02:18:38;;;;;;;;;9.00;6.80;;;;;26.39;34.81;101257.09;2088695;28;47850;-65
2022/07/30 02:19:41;;;;;;;;;5.00;5.00;;;;;26.39;35.60;101264.41;2089814;28;47326;-66
2022/07/30 02:20:50;;;;;;;;;6.00;6.00;;;;;26.37;34.86;101256.38;2082421;28;48496;-65
2022/07/30 02:22:05;;;;;;;;;5.40;5.40;;;;;26.36;35.55;101256.50;2091343;28;47880;-61
2022/07/30 02:23:10;;;;;;;;;5.80;5.80;;;;;26.34;35.57;101263.88;2087651;28;47614;-65
2022/07/30 02:24:17;;;;;;;;;6.80;5.40;;;;;26.32;34.95;101258.56;2084741;28;46643;-65
2022/07/30 02:25:20;;;;;;;;;5.60;5.60;;;;;26.33;34.96;101259.44;2085111;28;47766;-65
2022/07/30 02:26:24;;;;;;;;;6.00;6.00;;;;;26.32;35.10;101261.28;2088675;28;47108;-66
2022/07/30 02:27:28;;;;;;;;;5.40;5.00;;;;;26.30;35.33;101252.38;2091126;28;47379;-65
2022/07/30 02:28:31;;;;;;;;;5.60;5.60;;;;;26.30;35.70;101260.53;2086485;28;47444;-66
2022/07/30 02:29:34;;;;;;;;;3.00;3.00;;;;;26.29;35.67;101257.91;2092079;28;48221;-60
2022/07/30 02:30:39;;;;;;;;;6.00;6.00;;;;;26.28;35.86;101259.78;2090815;28;47431;-66
2022/07/30 02:31:40;;;;;;;;;6.20;6.20;;;;;26.27;35.19;101251.75;2087830;28;48243;-67
2022/07/30 02:32:43;;;;;;;;;7.00;7.00;;;;;26.27;35.81;101260.75;2085375;28;47845;-61
2022/07/30 02:33:48;;;;;;;;;7.80;7.40;;;;;26.26;35.20;101256.31;2089362;28;47338;-63
2022/07/30 02:34:54;;;;;;;;;7.40;6.60;;;;;26.26;35.35;101260.88;2081273;28;47980;-65
2022/07/30 02:35:56;;;;;;;;;6.00;6.00;;;;;26.25;35.57;101257.31;2084082;28;46668;-63
2022/07/30 02:36:57;;;;;;;;;5.80;4.80;;;;;26.23;35.71;101250.25;2084296;28;47770;-64
2022/07/30 02:38:00;;;;;;;;;6.00;6.00;;;;;26.24;35.68;101246.53;2083008;28;48018;-62
2022/07/30 02:39:02;;;;;;;;;5.00;5.00;;;;;26.22;35.36;101245.81;2088473;28;47396;-62
2022/07/30 02:40:03;;;;;;;;;7.00;7.00;;;;;26.22;35.49;101251.25;2086068;28;48180;-64
2022/07/30 02:41:09;;;;;;;;;4.40;4.00;;;;;26.23;35.88;101250.25;2086636;28;47997;-66
2022/07/30 02:42:12;;;;;;;;;4.00;4.00;;;;;26.22;35.33;101248.53;2110557;27;47385;-65
2022/07/30 02:43:17;;;;;;;;;5.20;5.20;;;;;26.21;35.32;101249.50;2121207;27;47383;-65
2022/07/30 02:44:20;;;;;;;;;7.20;7.00;;;;;26.19;36.02;101244.19;2118046;27;47845;-64
2022/07/30 02:45:24;;;;;;;;;6.00;5.80;;;;;26.19;35.39;101246.06;2120849;27;47353;-63
2022/07/30 02:46:26;;;;;;;;;4.20;4.20;;;;;26.17;35.47;101238.03;2089494;28;48148;-62
2022/07/30 02:47:27;;;;;;;;;8.80;6.80;;;;;26.17;35.42;101245.28;2095075;27;48146;-65
2022/07/30 02:48:28;;;;;;;;;4.80;4.80;;;;;26.16;35.43;101240.81;2116771;27;47691;-66
2022/07/30 02:49:32;;;;;;;;;4.80;4.80;;;;;26.16;35.34;101244.41;2122337;27;48073;-65
2022/07/30 02:50:33;;;;;;;;;6.00;5.80;;;;;26.16;35.47;101249.00;2115803;27;47789;-65
2022/07/30 02:51:34;;;;;;;;;5.75;5.00;;;;;26.16;35.55;101246.28;2098131;28;47183;-65
2022/07/30 02:52:36;;;;;;;;;7.80;6.40;;;;;26.14;35.74;101249.13;2098397;27;47541;-65
2022/07/30 02:53:38;;;;;;;;;5.40;5.40;;;;;26.14;35.92;101249.13;2120212;27;48154;-63
2022/07/30 02:54:41;;;;;;;;;7.40;7.40;;;;;26.11;35.95;101244.78;2113607;27;47373;-66
2022/07/30 02:55:44;;;;;;;;;6.00;6.00;;;;;26.11;35.58;101242.06;2117675;27;47731;-65
2022/07/30 02:56:50;;;;;;;;;7.00;7.00;;;;;26.11;35.42;101252.09;2118749;27;47761;-65
2022/07/30 02:57:52;;;;;;;;;6.20;6.20;;;;;26.10;35.56;101251.22;2114362;27;48036;-66
2022/07/30 02:58:55;;;;;;;;;5.80;5.20;;;;;26.11;35.82;101252.94;2109255;27;47640;-64
2022/07/30 02:59:57;;;;;;;;;5.20;5.00;;;;;26.09;36.10;101249.50;2105546;27;48113;-64
2022/07/30 03:00:59;;;;;;;;;5.40;5.00;;;;;26.08;36.14;101255.91;2120989;27;47629;-66
2022/07/30 03:02:00;;;;;;;;;5.40;5.40;;;;;26.07;36.11;101251.47;2118624;27;47295;-63
2022/07/30 03:03:04;;;;;;;;;4.20;4.20;;;;;26.07;36.10;101253.31;2118704;27;47900;-63
2022/07/30 03:04:07;;;;;;;;;6.00;6.00;;;;;26.06;35.75;101248.88;2120370;27;48233;-64
2022/07/30 03:05:08;;;;;;;;;6.40;6.40;;;;;26.06;35.43;101251.59;2118009;27;47515;-65
2022/07/30 03:06:12;;;;;;;;;5.80;5.80;;;;;26.07;36.21;101254.19;2111757;27;47297;-66
2022/07/30 03:07:13;;;;;;;;;8.60;7.80;;;;;26.07;36.09;101254.19;2112981;27;47560;-65
2022/07/30 03:08:15;;;;;;;;;6.00;6.00;;;;;26.05;35.70;101256.16;2121052;27;47902;-66
2022/07/30 03:09:16;;;;;;;;;6.60;6.60;;;;;26.05;35.54;101249.84;2111796;27;47076;-64
2022/07/30 03:10:17;;;;;;;;;6.00;6.00;;;;;26.04;36.09;101257.16;2107892;27;48112;-62
2022/07/30 03:11:19;;;;;;;;;7.75;7.75;;;;;26.04;35.89;101254.44;2115980;27;47383;-62
2022/07/30 03:12:21;;;;;;;;;6.00;6.00;;;;;26.02;36.18;101250.94;2120488;27;47733;-62
2022/07/30 03:13:23;;;;;;;;;7.60;7.60;;;;;25.99;36.32;101245.75;2120961;27;47109;-62
2022/07/30 03:14:23;;;;;;;;;7.00;7.00;;;;;25.99;35.47;101248.47;2117659;27;48101;-63
2022/07/30 03:15:25;;;;;;;;;7.00;7.00;;;;;25.99;36.16;101262.06;2112580;27;47287;-65
2022/07/30 03:16:27;;;;;;;;;7.00;7.00;;;;;25.99;36.16;101247.59;2110230;27;47866;-65
2022/07/30 03:17:31;;;;;;;;;8.40;8.00;;;;;25.98;35.73;101254.91;2121273;27;47777;-65
2022/07/30 03:18:35;;;;;;;;;8.40;8.40;;;;;25.98;35.71;101252.19;2117858;27;47626;-62
2022/07/30 03:19:38;;;;;;;;;7.00;7.00;;;;;25.97;35.74;101245.00;2118385;27;47683;-66
2022/07/30 03:20:39;;;;;;;;;7.20;7.20;;;;;25.96;36.23;101254.16;2098451;27;47820;-65
2022/07/30 03:21:40;;;;;;;;;9.40;9.20;;;;;25.94;36.37;101250.69;2102442;27;47824;-61
2022/07/30 03:22:45;;;;;;;;;8.25;8.25;;;;;25.93;36.29;101254.41;2116162;27;47125;-64
2022/07/30 03:23:48;;;;;;;;;7.80;7.60;;;;;25.90;36.11;101257.34;2113020;27;47264;-58
2022/07/30 03:24:50;;;;;;;;;8.20;8.20;;;;;25.89;36.21;101250.16;2111290;27;47961;-66
2022/07/30 03:25:54;;;;;;;;;9.00;8.40;;;;;25.89;36.58;101252.00;2120982;27;46642;-60
2022/07/30 03:26:56;;;;;;;;;7.40;7.40;;;;;25.90;36.53;101251.03;2120216;27;47514;-65
2022/07/30 03:27:59;;;;;;;;;9.20;8.80;;;;;25.90;36.44;101248.31;2120678;27;47841;-63
2022/07/30 03:29:01;;;;;;;;;6.60;6.00;;;;;25.89;36.64;101252.88;2120238;27;48197;-65
2022/07/30 03:30:03;;;;;;;;;8.60;7.40;;;;;25.89;36.59;101252.88;2110346;27;47571;-63
2022/07/30 03:31:05;;;;;;;;;10.00;9.80;;;;;25.89;35.88;101252.88;2098319;27;48017;-61
2022/07/30 03:32:06;;;;;;;;;10.00;9.00;;;;;25.88;36.46;101245.72;2112013;27;47490;-65
2022/07/30 03:33:06;;;;;;;;;8.50;7.75;;;;;25.87;36.22;101245.84;2120942;27;48060;-63
2022/07/30 03:34:08;;;;;;;;;10.75;10.00;;;;;25.87;36.52;101240.41;2121141;27;47615;-63
2022/07/30 03:35:09;;;;;;;;;8.60;7.00;;;;;25.87;36.81;101240.41;2120828;27;48126;-64
2022/07/30 03:36:12;;;;;;;;;7.80;7.80;;;;;25.87;36.04;101246.69;2124793;27;47947;-64
2022/07/30 03:37:13;;;;;;;;;11.60;10.40;;;;;25.86;36.22;101242.25;2110184;27;47494;-63
2022/07/30 03:38:14;;;;;;;;;9.00;9.00;;;;;25.85;36.62;101239.66;2108262;27;47479;-67
2022/07/30 03:39:16;;;;;;;;;7.80;7.60;;;;;25.85;36.27;101242.38;2090623;28;47572;-61
2022/07/30 03:40:18;;;;;;;;;8.60;8.60;;;;;25.87;36.73;101248.56;2098089;27;47139;-65
2022/07/30 03:41:21;;;;;;;;;10.20;9.00;;;;;25.86;36.63;101238.66;2120276;27;47292;-63
2022/07/30 03:42:21;;;;;;;;;1.60;1.60;;;;;25.86;36.67;101246.81;2116925;27;47769;-65
2022/07/30 03:43:23;;;;;;;;;7.75;7.75;;;;;25.85;36.20;101245.97;2116496;27;48238;-64
2022/07/30 03:44:23;;;;;;;;;6.80;6.80;;;;;25.85;36.36;101245.09;2108206;27;48119;-67
2022/07/30 03:45:25;;;;;;;;;10.25;10.25;;;;;25.81;36.50;101242.63;2093839;28;47831;-66
2022/07/30 03:46:27;;;;;;;;;8.80;8.80;;;;;25.82;36.36;101248.91;2097809;27;47611;-64
2022/07/30 03:47:31;;;;;;;;;8.00;6.20;;;;;25.81;36.81;101249.91;2111772;27;47278;-66
2022/07/30 03:48:34;;;;;;;;;9.00;9.00;;;;;25.82;36.76;101254.34;2103126;27;47268;-66
2022/07/30 03:49:34;;;;;;;;;8.20;7.80;;;;;25.81;36.30;101255.34;2112751;27;47268;-65
2022/07/30 03:50:36;;;;;;;;;7.50;7.50;;;;;25.80;36.36;101249.03;2115416;27;47800;-65
2022/07/30 03:51:37;;;;;;;;;9.60;9.60;;;;;25.79;36.77;101254.56;2093008;28;47464;-63
2022/07/30 03:52:39;;;;;;;;;9.75;8.75;;;;;25.78;36.56;101259.16;2087017;28;47610;-65
2022/07/30 03:53:41;;;;;;;;;8.20;7.00;;;;;25.76;36.15;101257.53;2110314;27;47807;-62
2022/07/30 03:54:42;;;;;;;;;6.80;6.80;;;;;25.76;36.56;101261.13;2116885;27;48217;-65
2022/07/30 03:55:42;;;;;;;;;9.25;9.25;;;;;25.77;36.47;101259.25;2090315;28;47403;-65
2022/07/30 03:56:43;;;;;;;;;9.50;9.50;;;;;25.75;36.88;101258.53;2096723;28;47609;-65
2022/07/30 03:57:44;;;;;;;;;9.25;9.00;;;;;25.75;36.36;101256.66;2121472;27;46822;-66
2022/07/30 03:58:44;;;;;;;;;7.75;7.75;;;;;25.74;36.36;101259.50;2099666;28;48061;-60
2022/07/30 03:59:45;;;;;;;;;8.00;8.00;;;;;25.74;36.92;101263.09;2086862;28;47171;-67
2022/07/30 04:00:48;;;;;;;;;9.40;7.80;;;;;25.73;37.25;101255.06;2109891;27;47729;-63
2022/07/30 04:01:48;;;;;;;;;8.00;7.80;;;;;25.69;36.46;101264.44;2120671;27;47045;-63
2022/07/30 04:02:49;;;;;;;;;8.50;8.50;;;;;25.66;37.12;101260.03;2112655;27;47233;-63
2022/07/30 04:03:49;;;;;;;;;11.00;11.00;;;;;25.64;36.78;101269.31;2110952;27;47011;-65
2022/07/30 04:04:50;;;;;;;;;8.50;7.25;;;;;25.62;37.13;101261.28;2111644;27;47471;-62
2022/07/30 04:05:51;;;;;;;;;10.00;8.25;;;;;25.62;37.34;101266.72;2119739;27;47390;-63
2022/07/30 04:06:51;;;;;;;;;10.75;10.75;;;;;25.62;36.77;101260.41;2116434;27;47966;-66
2022/07/30 04:07:51;;;;;;;;;9.00;9.00;;;;;25.60;36.99;101254.22;2113354;27;45496;-66
2022/07/30 04:08:52;;;;;;;;;8.75;8.75;;;;;25.60;37.30;101262.38;2099844;28;48054;-64
2022/07/30 04:09:52;;;;;;;;;11.75;9.75;;;;;25.58;36.99;101254.34;2101129;28;47734;-67
2022/07/30 04:10:53;;;;;;;;;8.75;8.75;;;;;25.56;37.18;101253.59;2112722;27;47376;-67
2022/07/30 04:11:53;;;;;;;;;10.50;8.75;;;;;25.56;37.48;101256.31;2120746;27;47176;-65
2022/07/30 04:12:55;;;;;;;;;10.50;10.00;;;;;25.53;37.32;101260.13;2121099;27;48035;-67
2022/07/30 04:13:55;;;;;;;;;12.40;11.20;;;;;25.51;37.09;101258.50;2112317;27;46557;-67
2022/07/30 04:14:56;;;;;;;;;9.75;9.75;;;;;25.51;37.36;101261.22;2103062;28;47432;-63
2022/07/30 04:16:17;;;;;;;;;14.00;12.75;;;;;25.50;37.32;101259.50;2104558;27;47817;-66
2022/07/30 04:17:26;;;;;;;;;1.00;0.00;;;;;25.49;37.16;101258.63;2104296;28;48084;-66
2022/07/30 04:18:32;;;;;;;;;11.00;11.00;;;;;25.49;37.51;101255.91;2110232;27;48004;-66
2022/07/30 04:19:45;;;;;;;;;10.80;10.40;;;;;25.49;37.33;101258.63;2121326;27;48130;-66
2022/07/30 04:20:49;;;;;;;;;13.00;13.00;;;;;25.50;37.31;101256.78;2120873;27;48020;-64
2022/07/30 04:21:53;;;;;;;;;13.20;11.80;;;;;25.51;37.66;101261.22;2120798;27;47484;-65
2022/07/30 04:22:54;;;;;;;;;13.80;13.80;;;;;25.50;37.47;101256.78;2118398;27;47820;-64
2022/07/30 04:23:57;;;;;;;;;10.60;10.60;;;;;25.50;37.46;101262.22;2115424;27;47350;-63
2022/07/30 04:25:00;;;;;;;;;10.60;10.40;;;;;25.49;37.23;101266.78;2119290;27;47667;-65
2022/07/30 04:26:01;;;;;;;;;14.00;12.60;;;;;25.47;37.43;101259.72;2119963;27;47087;-66
2022/07/30 04:27:02;;;;;;;;;13.00;11.00;;;;;25.47;37.65;101266.03;2096883;28;47215;-67
2022/07/30 04:28:08;;;;;;;;;11.00;10.00;;;;;25.47;37.37;101271.47;2104219;27;48151;-64
2022/07/30 04:29:09;;;;;;;;;10.00;10.00;;;;;25.48;37.45;101272.34;2120202;27;47478;-63
2022/07/30 04:30:10;;;;;;;;;9.40;9.40;;;;;25.49;37.25;101274.06;2117397;27;47276;-66
2022/07/30 04:31:11;;;;;;;;;11.60;10.00;;;;;25.49;36.91;101269.50;2125444;27;47844;-65
2022/07/30 04:32:12;;;;;;;;;9.25;9.25;;;;;25.49;37.46;101269.50;2117311;27;47466;-66
2022/07/30 04:33:13;;;;;;;;;9.00;9.00;;;;;25.48;37.42;101270.47;2111855;27;47618;-66
2022/07/30 04:34:14;;;;;;;;;8.75;8.75;;;;;25.49;37.32;101272.22;2115624;27;47359;-63
2022/07/30 04:35:14;;;;;;;;;9.20;8.00;;;;;25.48;37.12;101273.19;2119724;27;47719;-64
2022/07/30 04:36:14;;;;;;;;;8.25;8.00;;;;;25.49;37.39;101274.94;2121157;27;47737;-66
2022/07/30 04:37:17;;;;;;;;;6.50;6.50;;;;;25.48;37.30;101270.47;2121019;27;47648;-62
2022/07/30 04:38:18;;;;;;;;;8.00;7.00;;;;;25.48;37.60;101275.03;2121237;27;47531;-66
2022/07/30 04:39:19;;;;;;;;;7.60;7.60;;;;;25.48;37.21;101280.47;2121094;27;47680;-64
2022/07/30 04:40:19;;;;;;;;;8.00;8.00;;;;;25.47;37.54;101267.88;2121676;27;47760;-65
2022/07/30 04:41:19;;;;;;;;;8.50;8.50;;;;;25.46;36.92;101272.44;2120217;27;47015;-66
2022/07/30 04:42:21;;;;;;;;;9.50;9.50;;;;;25.46;36.82;101271.59;2121187;27;47054;-65
2022/07/30 04:43:21;;;;;;;;;8.00;8.00;;;;;25.44;37.19;101268.97;2113682;27;46868;-64
2022/07/30 04:44:22;;;;;;;;;8.25;8.00;;;;;25.44;37.54;101274.41;2121147;27;47167;-66
2022/07/30 04:45:22;;;;;;;;;9.25;9.25;;;;;25.44;37.35;101263.56;2121157;27;48002;-62
2022/07/30 04:46:22;;;;;;;;;9.50;7.00;;;;;25.44;37.43;101268.13;2113946;27;47855;-66
2022/07/30 04:47:23;;;;;;;;;9.00;8.00;;;;;25.43;37.04;101266.38;2102651;28;46944;-63
2022/07/30 04:48:27;;;;;;;;;6.75;6.75;;;;;25.42;36.89;101265.53;2105565;27;47773;-61
2022/07/30 04:49:28;;;;;;;;;7.40;6.20;;;;;25.41;37.09;101263.78;2117867;27;48050;-63
2022/07/30 04:50:30;;;;;;;;;6.60;6.60;;;;;25.39;37.33;101267.56;2124706;27;47534;-66
2022/07/30 04:51:35;;;;;;;;;7.60;6.40;;;;;25.38;37.57;101258.56;2107275;27;47742;-66
2022/07/30 04:52:36;;;;;;;;;7.60;7.60;;;;;25.37;37.51;101270.41;2110779;27;47532;-64
2022/07/30 04:53:37;;;;;;;;;7.80;6.20;;;;;25.37;37.24;101270.41;2113149;27;47935;-64